Time;durP1;ratioP1;P1;durP2;ratioP2;P2;SDS_P1;SDS_P2;PMS_P1;PMS_P2;Temp;Humidity;BMP_temperature;BMP_pressure;BME280_temperature;BME280_humidity;BME280_pressure;Samples;Min_cycle;Max_cycle;Signal;HPM_P1;HPM_P2
2023/09/01 00:02:05;;;;;;;6.77;4.40;;;;;;;;;;5025308;28;20184;-75
2023/09/01 00:04:31;;;;;;;6.47;4.20;;;;;;;;;;5054657;28;20187;-75
2023/09/01 00:06:57;;;;;;;6.90;4.57;;;;;;;;;;5053905;28;20196;-75
2023/09/01 00:09:23;;;;;;;6.50;4.10;;;;;;;;;;5043727;28;20351;-73
2023/09/01 00:11:49;;;;;;;8.00;4.23;;;;;;;;;;5018512;28;20279;-74
2023/09/01 00:14:15;;;;;;;7.27;4.63;;;;;;;;;;5055495;28;20192;-73
2023/09/01 00:16:41;;;;;;;7.33;4.80;;;;;;;;;;5055075;28;20234;-73
2023/09/01 00:19:07;;;;;;;10.20;5.00;;;;;;;;;;5028424;28;20238;-75
2023/09/01 00:21:33;;;;;;;7.53;5.33;;;;;;;;;;5037106;28;20189;-73
2023/09/01 00:24:01;;;;;;;9.53;5.10;;;;;;;;;;5031399;28;20196;-74
2023/09/01 00:26:27;;;;;;;6.50;4.77;;;;;;;;;;5033959;28;20243;-79
2023/09/01 00:28:53;;;;;;;8.30;5.63;;;;;;;;;;5046851;28;20208;-79
2023/09/01 00:31:20;;;;;;;8.60;6.00;;;;;;;;;;5022858;28;20190;-79
2023/09/01 00:33:46;;;;;;;6.73;5.07;;;;;;;;;;5024449;28;20188;-78
2023/09/01 00:36:12;;;;;;;11.67;4.90;;;;;;;;;;5047273;28;20218;-79
2023/09/01 00:38:38;;;;;;;6.57;4.67;;;;;;;;;;5041686;28;20192;-78
2023/09/01 00:41:04;;;;;;;10.60;5.53;;;;;;;;;;5048549;28;20234;-79
2023/09/01 00:43:30;;;;;;;9.27;5.33;;;;;;;;;;5036638;28;20215;-75
2023/09/01 00:45:56;;;;;;;5.27;4.60;;;;;;;;;;5041281;28;20216;-75
2023/09/01 00:48:23;;;;;;;9.67;4.43;;;;;;;;;;5032143;28;20188;-75
2023/09/01 00:50:50;;;;;;;6.80;4.87;;;;;;;;;;5028024;28;20231;-75
2023/09/01 00:53:17;;;;;;;9.97;5.43;;;;;;;;;;5034050;28;20222;-76
2023/09/01 00:55:43;;;;;;;7.93;5.10;;;;;;;;;;5033084;28;20188;-76
2023/09/01 00:58:11;;;;;;;12.43;5.53;;;;;;;;;;5050623;28;20257;-76
2023/09/01 01:00:37;;;;;;;12.87;5.87;;;;;;;;;;5052667;28;20191;-76
2023/09/01 01:03:04;;;;;;;9.83;5.90;;;;;;;;;;5048676;28;20188;-75
2023/09/01 01:05:34;;;;;;;9.47;5.83;;;;;;;;;;5042048;28;20215;-75
2023/09/01 01:08:10;;;;;;;12.00;5.73;;;;;;;;;;5052142;28;20271;-75
2023/09/01 01:10:46;;;;;;;7.73;5.90;;;;;;;;;;5062532;22;20203;-75
2023/09/01 01:13:16;;;;;;;12.13;5.80;;;;;;;;;;5009778;28;20258;-75
2023/09/01 01:15:44;;;;;;;7.13;5.37;;;;;;;;;;5016749;28;20192;-80
2023/09/01 01:18:12;;;;;;;9.63;5.93;;;;;;;;;;5037127;28;20188;-80
2023/09/01 01:20:39;;;;;;;10.60;5.80;;;;;;;;;;5036165;28;20190;-79
2023/09/01 01:23:09;;;;;;;7.53;5.53;;;;;;;;;;5034436;28;20227;-79
2023/09/01 01:25:36;;;;;;;11.27;6.33;;;;;;;;;;5036908;28;20222;-79
2023/09/01 01:28:09;;;;;;;10.23;6.37;;;;;;;;;;5034562;28;20232;-80
2023/09/01 01:30:35;;;;;;;9.83;6.37;;;;;;;;;;5019612;28;20195;-75
2023/09/01 01:33:02;;;;;;;12.33;6.37;;;;;;;;;;5019045;28;20184;-75
2023/09/01 01:35:52;;;;;;;9.37;5.60;;;;;;;;;;5032067;28;20192;-76
2023/09/01 01:38:21;;;;;;;9.87;5.67;;;;;;;;;;5054134;28;20234;-76
2023/09/01 01:40:48;;;;;;;8.70;5.60;;;;;;;;;;5031960;28;20280;-76
2023/09/01 01:43:16;;;;;;;8.53;6.37;;;;;;;;;;5023270;28;20188;-76
2023/09/01 01:45:43;;;;;;;10.60;6.40;;;;;;;;;;5023190;28;20212;-76
2023/09/01 01:48:10;;;;;;;10.80;6.33;;;;;;;;;;5012998;28;20269;-76
2023/09/01 01:50:36;;;;;;;9.47;5.90;;;;;;;;;;5025889;28;20181;-76
2023/09/01 01:53:05;;;;;;;11.90;5.83;;;;;;;;;;5024629;28;20213;-75
2023/09/01 01:55:32;;;;;;;9.40;6.17;;;;;;;;;;5031560;28;20277;-75
2023/09/01 01:57:58;;;;;;;8.80;6.10;;;;;;;;;;4997370;28;20485;-75
2023/09/01 02:00:26;;;;;;;7.87;5.80;;;;;;;;;;5015833;28;20211;-75
2023/09/01 02:02:52;;;;;;;8.63;5.90;;;;;;;;;;5006467;28;20262;-75
2023/09/01 02:05:19;;;;;;;10.80;5.90;;;;;;;;;;5024509;28;20258;-76
2023/09/01 02:07:45;;;;;;;9.37;6.00;;;;;;;;;;5003258;28;20180;-79
2023/09/01 02:10:11;;;;;;;10.50;6.23;;;;;;;;;;5021607;28;20184;-79
2023/09/01 02:12:37;;;;;;;12.97;6.97;;;;;;;;;;5023824;28;20311;-80
2023/09/01 02:15:03;;;;;;;10.67;7.73;;;;;;;;;;5007556;28;20189;-79
2023/09/01 02:17:29;;;;;;;13.33;8.20;;;;;;;;;;5016149;28;20195;-75
2023/09/01 02:19:58;;;;;;;12.57;8.00;;;;;;;;;;5023194;28;20279;-75
2023/09/01 02:22:24;;;;;;;12.97;8.17;;;;;;;;;;5031148;28;20189;-75
2023/09/01 02:24:50;;;;;;;10.27;7.90;;;;;;;;;;5024279;28;20235;-75
2023/09/01 02:27:16;;;;;;;9.90;7.67;;;;;;;;;;5029350;28;20193;-76
2023/09/01 02:29:42;;;;;;;13.30;7.90;;;;;;;;;;5011412;28;20187;-76
2023/09/01 02:32:08;;;;;;;9.50;6.73;;;;;;;;;;4994662;28;20180;-76
2023/09/01 02:34:34;;;;;;;11.43;7.63;;;;;;;;;;5013587;28;20184;-76
2023/09/01 02:37:00;;;;;;;11.73;7.90;;;;;;;;;;4994996;28;20212;-76
2023/09/01 02:39:26;;;;;;;11.50;8.20;;;;;;;;;;5013029;28;20178;-80
2023/09/01 02:41:52;;;;;;;11.90;7.70;;;;;;;;;;5011140;28;20193;-80
2023/09/01 02:44:18;;;;;;;11.73;8.07;;;;;;;;;;4996964;28;20188;-79
2023/09/01 02:46:44;;;;;;;14.77;7.83;;;;;;;;;;4996642;28;20219;-80
2023/09/01 02:49:10;;;;;;;11.13;8.23;;;;;;;;;;5010821;28;20189;-80
2023/09/01 02:51:36;;;;;;;12.87;8.40;;;;;;;;;;5034972;28;20195;-79
2023/09/01 02:54:04;;;;;;;13.07;8.37;;;;;;;;;;5010698;28;20220;-79
2023/09/01 02:56:30;;;;;;;11.93;8.30;;;;;;;;;;5030298;28;20200;-76
2023/09/01 02:58:56;;;;;;;16.67;8.40;;;;;;;;;;5014110;28;20303;-76
2023/09/01 03:01:22;;;;;;;13.23;8.17;;;;;;;;;;5016858;28;20308;-76
2023/09/01 03:03:49;;;;;;;11.07;8.00;;;;;;;;;;5007018;28;20223;-75
2023/09/01 03:06:15;;;;;;;9.20;8.23;;;;;;;;;;5005782;28;20220;-76
2023/09/01 03:08:41;;;;;;;9.50;7.07;;;;;;;;;;5019392;28;20192;-76
2023/09/01 03:11:07;;;;;;;15.00;7.80;;;;;;;;;;5019225;28;20220;-76
2023/09/01 03:13:33;;;;;;;15.23;9.30;;;;;;;;;;5019660;28;20207;-76
2023/09/01 03:15:59;;;;;;;11.60;8.63;;;;;;;;;;5036658;28;20192;-76
2023/09/01 03:18:25;;;;;;;11.60;8.13;;;;;;;;;;5027119;28;20185;-75
2023/09/01 03:20:55;;;;;;;11.33;8.73;;;;;;;;;;5023561;28;20251;-75
2023/09/01 03:23:22;;;;;;;11.87;8.47;;;;;;;;;;5038338;28;20199;-75
2023/09/01 03:25:57;;;;;;;14.40;8.47;;;;;;;;;;5035571;28;20303;-75
2023/09/01 03:28:23;;;;;;;13.53;8.73;;;;;;;;;;5003287;28;20209;-76
2023/09/01 03:30:49;;;;;;;11.27;8.13;;;;;;;;;;5036395;28;20184;-75
2023/09/01 03:33:15;;;;;;;12.30;8.77;;;;;;;;;;4992757;28;20196;-75
2023/09/01 03:35:41;;;;;;;10.70;8.40;;;;;;;;;;5032474;28;20218;-75
2023/09/01 03:38:07;;;;;;;14.37;9.40;;;;;;;;;;5026156;28;20264;-75
2023/09/01 03:40:36;;;;;;;15.90;9.33;;;;;;;;;;5021352;28;20255;-75
2023/09/01 03:43:02;;;;;;;14.97;9.00;;;;;;;;;;5034373;28;20191;-75
2023/09/01 03:45:28;;;;;;;12.60;8.63;;;;;;;;;;5018719;28;20212;-75
2023/09/01 03:47:54;;;;;;;10.53;9.27;;;;;;;;;;5007590;28;20190;-76
2023/09/01 03:50:20;;;;;;;14.57;9.00;;;;;;;;;;5002971;28;20189;-76
2023/09/01 03:52:46;;;;;;;15.33;9.50;;;;;;;;;;5026712;28;20219;-76
2023/09/01 03:55:12;;;;;;;14.63;9.77;;;;;;;;;;5018761;28;20196;-76
2023/09/01 03:57:38;;;;;;;12.97;9.93;;;;;;;;;;5034712;28;20287;-76
2023/09/01 04:00:10;;;;;;;14.83;10.13;;;;;;;;;;5002343;28;20188;-76
2023/09/01 04:02:36;;;;;;;13.03;10.07;;;;;;;;;;5035875;28;20271;-75
2023/09/01 04:05:03;;;;;;;16.57;10.30;;;;;;;;;;5036793;28;20221;-75
2023/09/01 04:07:29;;;;;;;14.83;10.77;;;;;;;;;;5033827;28;20184;-75
2023/09/01 04:09:58;;;;;;;16.33;9.90;;;;;;;;;;5055192;28;20184;-75
2023/09/01 04:12:24;;;;;;;18.60;11.00;;;;;;;;;;5055679;28;20216;-75
2023/09/01 04:14:50;;;;;;;14.70;10.67;;;;;;;;;;5033870;28;20203;-76
2023/09/01 04:17:16;;;;;;;20.37;12.83;;;;;;;;;;5019139;28;20279;-76
2023/09/01 04:19:42;;;;;;;18.90;12.83;;;;;;;;;;5033435;28;20274;-73
2023/09/01 04:22:08;;;;;;;18.40;12.33;;;;;;;;;;5017364;28;20189;-73
2023/09/01 04:24:34;;;;;;;21.27;13.50;;;;;;;;;;5001211;28;20184;-73
2023/09/01 04:27:00;;;;;;;17.43;13.17;;;;;;;;;;5018391;28;20234;-73
2023/09/01 04:29:26;;;;;;;16.53;13.20;;;;;;;;;;5033661;28;20192;-74
2023/09/01 04:31:52;;;;;;;16.97;13.07;;;;;;;;;;5002264;28;20193;-73
2023/09/01 04:34:19;;;;;;;20.00;13.27;;;;;;;;;;5000618;28;20186;-74
2023/09/01 04:36:45;;;;;;;17.07;13.53;;;;;;;;;;5014585;28;20189;-73
2023/09/01 04:39:12;;;;;;;16.75;11.05;;;;;;;;;;5006798;28;20432;-73
2023/09/01 04:41:38;;;;;;;19.80;12.30;;;;;;;;;;5021319;28;20270;-79
2023/09/01 04:44:04;;;;;;;19.60;13.03;;;;;;;;;;5015221;28;20215;-79
2023/09/01 04:46:30;;;;;;;21.03;13.00;;;;;;;;;;5018772;28;20211;-80
2023/09/01 04:48:56;;;;;;;16.30;12.87;;;;;;;;;;5022976;28;20195;-80
2023/09/01 04:51:22;;;;;;;19.70;12.60;;;;;;;;;;5030817;28;20184;-73
2023/09/01 04:53:49;;;;;;;22.57;14.07;;;;;;;;;;5012244;28;20252;-73
2023/09/01 04:56:15;;;;;;;17.37;12.90;;;;;;;;;;5016563;28;20180;-73
2023/09/01 04:58:41;;;;;;;18.73;12.97;;;;;;;;;;5011294;28;20193;-73
2023/09/01 05:01:07;;;;;;;18.90;13.17;;;;;;;;;;5026103;28;20300;-73
2023/09/01 05:03:33;;;;;;;20.03;12.60;;;;;;;;;;5031536;28;20192;-73
2023/09/01 05:06:00;;;;;;;17.10;12.80;;;;;;;;;;5000037;28;20212;-73
2023/09/01 05:08:26;;;;;;;19.37;13.13;;;;;;;;;;5034775;28;20207;-73
2023/09/01 05:10:52;;;;;;;17.93;12.80;;;;;;;;;;5015686;28;20182;-75
2023/09/01 05:13:18;;;;;;;17.17;12.60;;;;;;;;;;5028474;28;20238;-74
2023/09/01 05:15:47;;;;;;;19.30;12.77;;;;;;;;;;5032119;28;20180;-74
2023/09/01 05:18:13;;;;;;;18.20;13.13;;;;;;;;;;5014699;28;20174;-73
2023/09/01 05:20:39;;;;;;;17.80;13.03;;;;;;;;;;5017128;28;20211;-73
2023/09/01 05:23:05;;;;;;;18.57;13.03;;;;;;;;;;5017033;28;20180;-75
2023/09/01 05:25:31;;;;;;;18.57;13.37;;;;;;;;;;5032049;28;20302;-80
2023/09/01 05:28:01;;;;;;;18.53;13.20;;;;;;;;;;5032579;28;20184;-80
2023/09/01 05:30:27;;;;;;;20.30;13.43;;;;;;;;;;5031296;28;20181;-79
2023/09/01 05:32:53;;;;;;;18.53;13.60;;;;;;;;;;5001207;28;20207;-80
2023/09/01 05:35:19;;;;;;;18.27;13.13;;;;;;;;;;5017017;28;20185;-81
2023/09/01 05:37:45;;;;;;;19.37;13.67;;;;;;;;;;5028416;28;20180;-80
2023/09/01 05:40:12;;;;;;;17.00;13.10;;;;;;;;;;5033772;28;20323;-80
2023/09/01 05:42:38;;;;;;;16.20;12.43;;;;;;;;;;5030425;28;20193;-76
2023/09/01 05:45:04;;;;;;;16.83;13.53;;;;;;;;;;5033110;28;20239;-77
2023/09/01 05:47:30;;;;;;;19.17;13.40;;;;;;;;;;5016349;28;20209;-76
2023/09/01 05:49:56;;;;;;;17.77;12.97;;;;;;;;;;5015421;28;20200;-76
2023/09/01 05:52:22;;;;;;;15.63;13.00;;;;;;;;;;5015395;28;20184;-76
2023/09/01 05:54:48;;;;;;;19.37;13.43;;;;;;;;;;5032999;28;20180;-76
2023/09/01 05:57:14;;;;;;;16.67;13.03;;;;;;;;;;5033951;28;20227;-76
2023/09/01 05:59:40;;;;;;;17.23;12.63;;;;;;;;;;5022136;28;20188;-80
2023/09/01 06:02:06;;;;;;;15.37;12.60;;;;;;;;;;5011331;28;20189;-80
2023/09/01 06:04:32;;;;;;;16.43;12.87;;;;;;;;;;5034107;28;20192;-80
2023/09/01 06:06:58;;;;;;;20.60;12.80;;;;;;;;;;5016799;28;20270;-80
2023/09/01 06:09:24;;;;;;;18.10;12.00;;;;;;;;;;5000225;28;20185;-81
2023/09/01 06:11:51;;;;;;;16.93;12.40;;;;;;;;;;5015338;28;20227;-80
2023/09/01 06:14:17;;;;;;;16.83;12.40;;;;;;;;;;5000654;28;20184;-80
2023/09/01 06:16:44;;;;;;;17.40;12.43;;;;;;;;;;4999760;28;20191;-74
2023/09/01 06:19:10;;;;;;;20.03;12.37;;;;;;;;;;5033676;28;20172;-74
2023/09/01 06:21:36;;;;;;;15.63;11.73;;;;;;;;;;5014945;28;20220;-74
2023/09/01 06:24:03;;;;;;;18.43;12.00;;;;;;;;;;5032828;28;20219;-74
2023/09/01 06:26:29;;;;;;;19.20;11.80;;;;;;;;;;5028913;28;20208;-75
2023/09/01 06:28:55;;;;;;;15.23;11.77;;;;;;;;;;4999318;28;20195;-74
2023/09/01 06:31:21;;;;;;;14.13;10.63;;;;;;;;;;5023617;28;20214;-74
2023/09/01 06:33:48;;;;;;;17.77;11.60;;;;;;;;;;5032610;28;20188;-80
2023/09/01 06:36:14;;;;;;;16.73;11.37;;;;;;;;;;5000709;28;20180;-80
2023/09/01 06:38:43;;;;;;;16.47;11.23;;;;;;;;;;5017062;28;20185;-80
2023/09/01 06:41:10;;;;;;;14.90;11.23;;;;;;;;;;5015973;28;20227;-80
2023/09/01 06:43:36;;;;;;;18.50;10.77;;;;;;;;;;5008676;28;20192;-80
2023/09/01 06:46:02;;;;;;;12.73;10.40;;;;;;;;;;5013922;28;20216;-80
2023/09/01 06:48:32;;;;;;;13.70;10.07;;;;;;;;;;5023194;28;20239;-80
2023/09/01 06:51:02;;;;;;;15.47;10.40;;;;;;;;;;5026652;28;20256;-76
2023/09/01 06:53:28;;;;;;;14.73;10.43;;;;;;;;;;5024092;28;20213;-76
2023/09/01 06:55:54;;;;;;;15.33;10.53;;;;;;;;;;5003106;28;20232;-76
2023/09/01 06:58:20;;;;;;;14.30;10.23;;;;;;;;;;5025785;28;20196;-76
2023/09/01 07:00:46;;;;;;;13.43;10.30;;;;;;;;;;4979129;28;20191;-76
2023/09/01 07:03:12;;;;;;;18.57;10.17;;;;;;;;;;4999470;28;20185;-76
2023/09/01 07:05:38;;;;;;;12.67;10.50;;;;;;;;;;5011046;28;20216;-76
2023/09/01 07:08:04;;;;;;;14.57;10.30;;;;;;;;;;4999444;28;20218;-76
2023/09/01 07:13:00;;;;;;;17.20;10.40;;;;;;;;;;5040918;28;20279;-81
2023/09/01 07:15:27;;;;;;;15.53;10.57;;;;;;;;;;5022800;28;20257;-80
2023/09/01 07:17:53;;;;;;;12.37;10.63;;;;;;;;;;5049331;28;20188;-80
2023/09/01 07:20:19;;;;;;;14.03;10.57;;;;;;;;;;5039721;28;20191;-80
2023/09/01 07:22:45;;;;;;;16.40;10.67;;;;;;;;;;5027378;28;20172;-81
2023/09/01 07:25:13;;;;;;;15.33;10.63;;;;;;;;;;5038508;28;20200;-80
2023/09/01 07:27:39;;;;;;;19.17;10.30;;;;;;;;;;5023369;28;20195;-81
2023/09/01 07:30:05;;;;;;;15.80;10.70;;;;;;;;;;5026012;28;20175;-80
2023/09/01 07:32:32;;;;;;;18.47;11.10;;;;;;;;;;5040898;28;20187;-79
2023/09/01 07:35:03;;;;;;;14.50;10.67;;;;;;;;;;5039930;28;20233;-79
2023/09/01 07:37:29;;;;;;;14.73;11.10;;;;;;;;;;5020125;28;20185;-80
2023/09/01 07:39:55;;;;;;;14.53;10.70;;;;;;;;;;5037024;28;20263;-87
2023/09/01 07:42:22;;;;;;;15.53;10.07;;;;;;;;;;5014279;28;20184;-87
2023/09/01 07:44:48;;;;;;;16.77;11.57;;;;;;;;;;5055656;28;20176;-88
2023/09/01 07:47:14;;;;;;;16.17;10.53;;;;;;;;;;5047110;28;20207;-87
2023/09/01 07:49:40;;;;;;;12.63;10.43;;;;;;;;;;5026436;28;20215;-87
2023/09/01 07:52:06;;;;;;;15.10;10.47;;;;;;;;;;5032395;28;20214;-88
2023/09/01 07:54:32;;;;;;;16.20;10.90;;;;;;;;;;5056283;28;20184;-87
2023/09/01 07:56:58;;;;;;;14.87;10.67;;;;;;;;;;5039963;28;20203;-80
2023/09/01 07:59:25;;;;;;;15.00;11.17;;;;;;;;;;5041238;28;20192;-82
2023/09/01 08:01:52;;;;;;;13.93;10.47;;;;;;;;;;5072505;28;20187;-82
2023/09/01 08:04:18;;;;;;;15.67;10.47;;;;;;;;;;5029130;28;20211;-82
2023/09/01 08:06:45;;;;;;;18.70;10.67;;;;;;;;;;5054082;28;20232;-82
2023/09/01 08:09:11;;;;;;;15.70;10.90;;;;;;;;;;5058203;28;20217;-82
2023/09/01 08:11:37;;;;;;;16.50;10.83;;;;;;;;;;5051606;28;20213;-82
2023/09/01 08:14:03;;;;;;;20.43;11.30;;;;;;;;;;5037812;28;20250;-82
2023/09/01 08:16:29;;;;;;;16.67;11.20;;;;;;;;;;5036150;28;20195;-82
2023/09/01 08:18:58;;;;;;;14.40;10.37;;;;;;;;;;5038215;28;20187;-82
2023/09/01 08:21:25;;;;;;;14.03;9.90;;;;;;;;;;5054956;28;20187;-82
2023/09/01 08:23:51;;;;;;;16.57;10.50;;;;;;;;;;5042996;28;20183;-82
2023/09/01 08:26:17;;;;;;;12.97;9.97;;;;;;;;;;5057739;28;20207;-82
2023/09/01 08:28:43;;;;;;;12.37;9.53;;;;;;;;;;5032502;28;20263;-82
2023/09/01 08:31:09;;;;;;;13.70;9.83;;;;;;;;;;5037865;28;20238;-81
2023/09/01 08:33:36;;;;;;;14.77;10.10;;;;;;;;;;5040831;28;20175;-80
2023/09/01 08:36:05;;;;;;;13.17;9.77;;;;;;;;;;5057706;28;20206;-80
2023/09/01 08:38:32;;;;;;;16.53;9.53;;;;;;;;;;5050435;28;20179;-81
2023/09/01 08:41:02;;;;;;;12.30;9.67;;;;;;;;;;5034750;28;20209;-81
2023/09/01 08:43:30;;;;;;;11.43;9.70;;;;;;;;;;5045187;28;20271;-81
2023/09/01 08:45:56;;;;;;;15.60;9.43;;;;;;;;;;5054946;28;20204;-82
2023/09/01 08:48:22;;;;;;;11.90;9.83;;;;;;;;;;5020520;28;20268;-82
2023/09/01 08:50:49;;;;;;;15.77;10.10;;;;;;;;;;5044280;28;20184;-83
2023/09/01 08:53:15;;;;;;;14.37;10.20;;;;;;;;;;5053919;28;20183;-83
2023/09/01 08:55:41;;;;;;;14.80;9.50;;;;;;;;;;5035945;28;20184;-82
2023/09/01 08:58:07;;;;;;;13.73;9.73;;;;;;;;;;5038343;28;20183;-82
2023/09/01 09:00:33;;;;;;;12.53;9.97;;;;;;;;;;5038495;28;20183;-83
2023/09/01 09:03:00;;;;;;;14.77;10.57;;;;;;;;;;5040449;28;20182;-82
2023/09/01 09:05:27;;;;;;;18.13;10.13;;;;;;;;;;5032924;28;20226;-82
2023/09/01 09:08:01;;;;;;;12.97;10.50;;;;;;;;;;5035041;28;20195;-83
2023/09/01 09:10:36;;;;;;;14.13;9.87;;;;;;;;;;5047803;28;20206;-81
2023/09/01 09:13:04;;;;;;;7.57;6.43;;;;;;;;;;5054624;28;20171;-81
2023/09/01 09:15:30;;;;;;;12.67;9.97;;;;;;;;;;5052137;28;20295;-82
2023/09/01 09:17:56;;;;;;;11.73;9.53;;;;;;;;;;5019906;28;20275;-82
2023/09/01 09:20:22;;;;;;;10.73;9.20;;;;;;;;;;5036389;28;20187;-79
2023/09/01 09:22:52;;;;;;;13.87;9.30;;;;;;;;;;5036975;28;20184;-79
2023/09/01 09:25:26;;;;;;;12.87;9.00;;;;;;;;;;5053089;28;20211;-79
2023/09/01 09:27:52;;;;;;;11.13;9.37;;;;;;;;;;5036448;28;20203;-80
2023/09/01 09:30:18;;;;;;;12.90;9.73;;;;;;;;;;5020239;28;20188;-80
2023/09/01 09:32:44;;;;;;;11.07;9.20;;;;;;;;;;5019434;28;20202;-80
2023/09/01 09:35:16;;;;;;;11.53;8.90;;;;;;;;;;5020121;28;20183;-80
2023/09/01 09:37:42;;;;;;;13.10;9.43;;;;;;;;;;5037079;28;20180;-82
2023/09/01 09:40:11;;;;;;;13.47;9.60;;;;;;;;;;5036728;28;20187;-82
2023/09/01 09:42:38;;;;;;;15.57;9.70;;;;;;;;;;5054190;28;20176;-82
2023/09/01 09:45:06;;;;;;;12.83;9.13;;;;;;;;;;5036754;28;20179;-82
2023/09/01 09:47:33;;;;;;;15.30;9.43;;;;;;;;;;5036699;28;20207;-82
2023/09/01 09:50:00;;;;;;;14.27;9.97;;;;;;;;;;5054244;28;20168;-82
2023/09/01 09:52:31;;;;;;;12.30;9.47;;;;;;;;;;5036864;28;20266;-82
2023/09/01 09:55:01;;;;;;;11.37;9.63;;;;;;;;;;5036670;28;20180;-82
2023/09/01 09:57:27;;;;;;;11.73;9.27;;;;;;;;;;5050629;28;20197;-82
2023/09/01 09:59:58;;;;;;;9.87;8.87;;;;;;;;;;5030212;28;20194;-82
2023/09/01 10:02:36;;;;;;;14.97;10.03;;;;;;;;;;5035807;28;20251;-82
2023/09/01 10:05:04;;;;;;;12.77;9.23;;;;;;;;;;5039229;28;20230;-82
2023/09/01 10:07:31;;;;;;;13.30;9.83;;;;;;;;;;5019173;28;20180;-82
2023/09/01 10:09:57;;;;;;;12.57;10.13;;;;;;;;;;5036136;28;20237;-87
2023/09/01 10:12:26;;;;;;;14.83;9.33;;;;;;;;;;5036212;28;20186;-87
2023/09/01 10:14:54;;;;;;;13.23;9.73;;;;;;;;;;5035379;28;20223;-87
2023/09/01 10:17:21;;;;;;;13.47;10.73;;;;;;;;;;5035569;28;20187;-88
2023/09/01 10:19:48;;;;;;;12.23;11.00;;;;;;;;;;5037712;28;20194;-87
2023/09/01 10:22:20;;;;;;;12.33;10.40;;;;;;;;;;5020878;28;20184;-86
2023/09/01 10:25:05;;;;;;;12.17;10.97;;;;;;;;;;5019472;28;20183;-87
2023/09/01 10:27:31;;;;;;;14.60;11.77;;;;;;;;;;5036194;28;20248;-82
2023/09/01 10:29:57;;;;;;;13.40;11.60;;;;;;;;;;5035366;28;20198;-82
2023/09/01 10:32:31;;;;;;;16.03;11.57;;;;;;;;;;5039106;28;20184;-82
2023/09/01 10:34:57;;;;;;;13.53;12.13;;;;;;;;;;5055833;28;20179;-82
2023/09/01 10:37:23;;;;;;;14.20;12.00;;;;;;;;;;5034069;28;20190;-82
2023/09/01 10:39:49;;;;;;;15.37;13.23;;;;;;;;;;5055940;28;20244;-82
2023/09/01 10:42:15;;;;;;;11.90;10.77;;;;;;;;;;5039501;28;20190;-81
2023/09/01 10:44:44;;;;;;;12.20;10.90;;;;;;;;;;5047933;28;20172;-82
2023/09/01 10:47:29;;;;;;;11.10;10.07;;;;;;;;;;5038321;28;20214;-82
2023/09/01 10:49:58;;;;;;;12.63;10.10;;;;;;;;;;5052900;28;20184;-82
2023/09/01 10:52:26;;;;;;;11.63;10.63;;;;;;;;;;5059852;28;20179;-82
2023/09/01 10:55:06;;;;;;;12.00;10.90;;;;;;;;;;5077880;28;20174;-82
2023/09/01 10:57:52;;;;;;;12.77;11.40;;;;;;;;;;5059695;28;20171;-82
2023/09/01 11:00:34;;;;;;;15.60;13.73;;;;;;;;;;5077199;28;20211;-86
2023/09/01 11:03:19;;;;;;;14.57;13.07;;;;;;;;;;5042323;28;20214;-87
2023/09/01 11:05:45;;;;;;;16.63;14.57;;;;;;;;;;5059133;28;20217;-86
2023/09/01 11:08:12;;;;;;;18.03;16.30;;;;;;;;;;5059478;28;20191;-87
2023/09/01 11:10:38;;;;;;;17.30;15.70;;;;;;;;;;5077036;28;20199;-87
2023/09/01 11:13:17;;;;;;;18.67;16.20;;;;;;;;;;5059674;28;20167;-86
2023/09/01 11:15:44;;;;;;;17.10;15.40;;;;;;;;;;5059116;28;20229;-82
2023/09/01 11:18:36;;;;;;;17.17;15.50;;;;;;;;;;5042788;28;20278;-81
2023/09/01 11:21:02;;;;;;;17.50;15.70;;;;;;;;;;5055331;28;20252;-82
2023/09/01 11:23:28;;;;;;;17.87;15.37;;;;;;;;;;5059169;28;20201;-82
2023/09/01 11:25:58;;;;;;;19.03;14.93;;;;;;;;;;5042355;28;20211;-81
2023/09/01 11:28:27;;;;;;;18.57;15.33;;;;;;;;;;5076404;28;20171;-81
2023/09/01 11:30:57;;;;;;;17.10;15.37;;;;;;;;;;5051754;28;20184;-81
2023/09/01 11:33:24;;;;;;;16.50;15.10;;;;;;;;;;5046908;28;20216;-88
2023/09/01 11:36:03;;;;;;;17.53;15.67;;;;;;;;;;5035480;28;20204;-87
2023/09/01 11:38:29;;;;;;;18.03;16.13;;;;;;;;;;5036066;28;20184;-85
2023/09/01 11:40:55;;;;;;;19.87;16.10;;;;;;;;;;5002573;28;20196;-84
2023/09/01 11:43:21;;;;;;;17.33;15.73;;;;;;;;;;5018852;28;20177;-84
2023/09/01 11:45:48;;;;;;;17.80;16.07;;;;;;;;;;5035351;28;20220;-84
2023/09/01 11:48:23;;;;;;;17.40;15.90;;;;;;;;;;5035230;28;20179;-85
2023/09/01 11:50:49;;;;;;;19.37;16.90;;;;;;;;;;5034346;28;20268;-84
2023/09/01 11:53:42;;;;;;;18.70;17.00;;;;;;;;;;5002363;28;20184;-85
2023/09/01 11:56:19;;;;;;;20.27;17.43;;;;;;;;;;5032058;28;20193;-84
2023/09/01 11:58:46;;;;;;;19.37;17.63;;;;;;;;;;5035146;28;20184;-87
2023/09/01 12:01:14;;;;;;;21.93;19.50;;;;;;;;;;5036115;28;20203;-86
2023/09/01 12:03:47;;;;;;;21.40;19.17;;;;;;;;;;5035175;28;20204;-86
2023/09/01 12:06:16;;;;;;;20.73;18.57;;;;;;;;;;5035083;28;20243;-79
2023/09/01 12:08:42;;;;;;;19.47;17.57;;;;;;;;;;5034079;28;20244;-80
2023/09/01 12:11:08;;;;;;;20.83;18.63;;;;;;;;;;5000662;28;20279;-80
2023/09/01 12:13:34;;;;;;;21.10;18.83;;;;;;;;;;5034687;28;20181;-80
2023/09/01 12:16:01;;;;;;;22.00;19.83;;;;;;;;;;5001821;28;20243;-80
2023/09/01 12:18:33;;;;;;;22.50;20.50;;;;;;;;;;5003758;28;20234;-77
2023/09/01 12:20:59;;;;;;;21.83;19.80;;;;;;;;;;5034231;28;20179;-77
2023/09/01 12:23:29;;;;;;;22.73;20.60;;;;;;;;;;5026183;28;20219;-77
2023/09/01 12:25:55;;;;;;;23.17;20.87;;;;;;;;;;5018728;28;20223;-77
2023/09/01 12:28:22;;;;;;;23.37;21.20;;;;;;;;;;5036481;28;20187;-77
2023/09/01 12:30:48;;;;;;;23.93;21.40;;;;;;;;;;5037618;28;20188;-77
2023/09/01 12:33:14;;;;;;;24.57;21.37;;;;;;;;;;5021624;28;20192;-77
2023/09/01 12:35:40;;;;;;;25.30;22.90;;;;;;;;;;5019813;28;20420;-77
2023/09/01 12:38:06;;;;;;;24.60;22.38;;;;;;;;;;5019201;28;20497;-77
2023/09/01 12:40:33;;;;;;;23.27;21.23;;;;;;;;;;5035574;28;20427;-79
2023/09/01 12:43:00;;;;;;;25.40;23.20;;;;;;;;;;5020554;28;20451;-80
2023/09/01 12:45:26;;;;;;;26.20;23.83;;;;;;;;;;5054773;28;20431;-81
2023/09/01 12:47:52;;;;;;;26.77;24.27;;;;;;;;;;5036992;28;20426;-81
2023/09/01 12:50:18;;;;;;;28.95;26.27;;;;;;;;;;5036194;28;20428;-80
2023/09/01 12:52:44;;;;;;;26.53;23.60;;;;;;;;;;5019122;28;20188;-80
2023/09/01 12:55:10;;;;;;;26.00;23.47;;;;;;;;;;5017879;28;20177;-80
2023/09/01 12:57:36;;;;;;;26.83;24.15;;;;;;;;;;5036024;28;20372;-79
2023/09/01 13:00:02;;;;;;;27.53;24.93;;;;;;;;;;5036958;28;20458;-78
2023/09/01 13:02:28;;;;;;;26.00;23.60;;;;;;;;;;5020899;28;20269;-78
2023/09/01 13:04:57;;;;;;;25.63;23.23;;;;;;;;;;5021204;28;20211;-79
2023/09/01 13:07:23;;;;;;;28.83;26.13;;;;;;;;;;5036935;28;20416;-78
2023/09/01 13:09:50;;;;;;;29.53;26.83;;;;;;;;;;5037229;28;20405;-79
2023/09/01 13:12:19;;;;;;;33.25;29.95;;;;;;;;;;5037086;28;20400;-79
2023/09/01 13:14:45;;;;;;;31.57;28.33;;;;;;;;;;5021168;28;20231;-79
2023/09/01 13:17:11;;;;;;;32.07;28.97;;;;;;;;;;5037478;28;20187;-79
2023/09/01 13:19:37;;;;;;;30.70;27.70;;;;;;;;;;5037449;28;20259;-79
2023/09/01 13:22:03;;;;;;;31.07;27.87;;;;;;;;;;5020833;28;20191;-78
2023/09/01 13:24:29;;;;;;;31.35;28.27;;;;;;;;;;5036935;28;20474;-79
2023/09/01 13:26:55;;;;;;;29.67;26.77;;;;;;;;;;5020497;28;20227;-78
2023/09/01 13:29:21;;;;;;;30.30;27.23;;;;;;;;;;5020829;28;20187;-81
2023/09/01 13:31:47;;;;;;;37.50;34.00;;;;;;;;;;5020232;28;20412;-81
2023/09/01 13:34:13;;;;;;;33.83;30.43;;;;;;;;;;5021070;28;20188;-81
2023/09/01 13:36:39;;;;;;;34.80;31.17;;;;;;;;;;5020882;28;20187;-81
2023/09/01 13:39:05;;;;;;;33.47;29.87;;;;;;;;;;5020798;28;20187;-81
2023/09/01 13:41:31;;;;;;;32.90;29.70;;;;;;;;;;5037109;28;20223;-81
2023/09/01 13:43:57;;;;;;;32.37;29.10;;;;;;;;;;5021071;28;20191;-81
2023/09/01 13:46:27;;;;;;;32.17;29.10;;;;;;;;;;5037012;28;20211;-80
2023/09/01 13:48:57;;;;;;;36.23;32.63;;;;;;;;;;5019445;28;20420;-80
2023/09/01 13:51:24;;;;;;;34.63;31.38;;;;;;;;;;5035959;28;20400;-80
2023/09/01 13:53:53;;;;;;;31.40;28.43;;;;;;;;;;5036464;28;20176;-80
2023/09/01 13:56:19;;;;;;;29.97;27.07;;;;;;;;;;5036795;28;20206;-80
2023/09/01 13:58:45;;;;;;;29.67;26.77;;;;;;;;;;5054212;28;20204;-80
2023/09/01 14:01:12;;;;;;;32.00;29.00;;;;;;;;;;5020116;28;20271;-80
2023/09/01 14:03:39;;;;;;;31.33;27.93;;;;;;;;;;5020172;28;20283;-86
2023/09/01 14:06:05;;;;;;;31.10;28.10;;;;;;;;;;5054238;28;20231;-86
2023/09/01 14:08:31;;;;;;;29.57;26.73;;;;;;;;;;5036585;28;20187;-86
2023/09/01 14:10:58;;;;;;;32.80;29.53;;;;;;;;;;5020292;28;20206;-86
2023/09/01 14:13:25;;;;;;;31.40;28.30;;;;;;;;;;5054386;28;20172;-86
2023/09/01 14:15:51;;;;;;;30.13;27.17;;;;;;;;;;5032957;28;20235;-86
2023/09/01 14:18:18;;;;;;;29.13;26.43;;;;;;;;;;5016843;28;20193;-86
2023/09/01 14:20:45;;;;;;;30.73;27.37;;;;;;;;;;5032947;28;20199;-81
2023/09/01 14:23:11;;;;;;;32.17;28.73;;;;;;;;;;5033236;28;20176;-81
2023/09/01 14:25:37;;;;;;;31.57;28.37;;;;;;;;;;5033191;28;20276;-81
2023/09/01 14:28:03;;;;;;;29.60;26.90;;;;;;;;;;5033292;28;20215;-82